Joshua Mqabuko Nkomo International Airport


Codes: FVBU/BUQ
Name: Joshua Mqabuko Nkomo International Airport
City: Bulawayo
Country: Zimbabwe
Elevation: 4359 ft.
Wikipedia:

Photos at Joshua Mqabuko Nkomo International Airport


   Photos courtesy of SpottingLog. You can add your own sightings and photos by signing up for a free trial today.



No photos found.

Weather at Joshua Mqabuko Nkomo International Airport


Time (UTC)DescriptionTempratureWindCloud coverageVisibilityPressureHumidity
25-Jun-2024 12:00Scattered Clouds21°C13 mph, E41%10000m1022hPa31%
25-Jun-2024 15:00Scattered Clouds20°C13 mph, SE29%10000m1022hPa34%
25-Jun-2024 18:00Few Clouds15°C13 mph, SE21%10000m1025hPa52%
25-Jun-2024 21:00Clear Sky12°C13 mph, SE0%10000m1026hPa56%
26-Jun-2024 00:00Clear Sky11°C13 mph, SE0%10000m1025hPa59%
26-Jun-2024 03:00Clear Sky10°C11 mph, SE0%10000m1025hPa66%
26-Jun-2024 06:00Clear Sky12°C11 mph, SE0%10000m1026hPa59%
26-Jun-2024 09:00Clear Sky19°C13 mph, E0%10000m1025hPa39%
26-Jun-2024 12:00Scattered Clouds16°C13 mph, SE25%10000m1024hPa49%
26-Jun-2024 15:00Overcast Clouds15°C11 mph, SE91%10000m1024hPa52%
26-Jun-2024 18:00Broken Clouds13°C13 mph, SE84%10000m1026hPa61%
26-Jun-2024 21:00Few Clouds12°C13 mph, SE24%10000m1026hPa56%
27-Jun-2024 00:00Few Clouds11°C13 mph, SE12%10000m1026hPa64%
27-Jun-2024 03:00Clear Sky9°C13 mph, SE0%10000m1027hPa83%
27-Jun-2024 06:00Few Clouds10°C16 mph, SE14%10000m1028hPa84%
27-Jun-2024 09:00Broken Clouds14°C16 mph, E67%10000m1029hPa65%
27-Jun-2024 12:00Scattered Clouds18°C16 mph, E40%10000m1024hPa47%
27-Jun-2024 15:00Broken Clouds13°C11 mph, SE57%10000m1026hPa77%
27-Jun-2024 18:00Broken Clouds11°C16 mph, SE62%10000m1027hPa86%
27-Jun-2024 21:00Overcast Clouds10°C16 mph, SE86%10000m1027hPa88%
28-Jun-2024 00:00Broken Clouds11°C16 mph, E77%10000m1026hPa81%
28-Jun-2024 03:00Overcast Clouds10°C13 mph, E90%10000m1026hPa87%
28-Jun-2024 06:00Overcast Clouds11°C13 mph, E94%10000m1027hPa81%
28-Jun-2024 09:00Overcast Clouds15°C13 mph, E99%10000m1026hPa59%
28-Jun-2024 12:00Broken Clouds19°C13 mph, E69%10000m1022hPa41%
28-Jun-2024 15:00Broken Clouds17°C9 mph, SE61%10000m1022hPa44%
28-Jun-2024 18:00Broken Clouds11°C11 mph, SE64%10000m1025hPa64%
28-Jun-2024 21:00Broken Clouds10°C11 mph, SE60%10000m1026hPa79%
29-Jun-2024 00:00Scattered Clouds8°C9 mph, SE41%10000m1025hPa85%
29-Jun-2024 03:00Few Clouds7°C7 mph, E20%10000m1025hPa88%
29-Jun-2024 06:00Few Clouds9°C7 mph, E12%10000m1026hPa72%
29-Jun-2024 09:00Clear Sky18°C7 mph, E3%10000m1023hPa34%
29-Jun-2024 12:00Clear Sky21°C7 mph, SE4%10000m1019hPa27%
29-Jun-2024 15:00Scattered Clouds19°C7 mph, SE28%10000m1019hPa30%
29-Jun-2024 18:00Scattered Clouds13°C7 mph, SE39%10000m1022hPa47%
29-Jun-2024 21:00Clear Sky11°C7 mph, SE5%10000m1023hPa56%
30-Jun-2024 00:00Clear Sky9°C4 mph, SE5%10000m1022hPa61%
30-Jun-2024 03:00Clear Sky9°C4 mph, SE0%10000m1022hPa61%
30-Jun-2024 06:00Clear Sky13°C4 mph, SE0%10000m1022hPa47%
30-Jun-2024 09:00Clear Sky20°C7 mph, SE0%10000m1021hPa24%